Gove Airport

YPGV · 北領地, 澳大利亚

METAR YPGV · Gove Airport

13 六月 10:00 LT
17m
罗盘
风向 的 风向 090° Gove Airport 13/31
风: 12 kt, 4 beaufort

9 kt

8 kt
改变
0 ft 1.000 2.000 3.000 4.000 5.000
Cloud Cloud Cloud Cloud
SCT 2.700
Cloud Cloud Cloud Cloud Cloud Cloud
BKN 3.400
METAR YPGV 130030Z AUTO 09012KT 9999 // SCT027 BKN034 27/20 Q1015

METAR Gove Airport - YPGV/GOV

Gove Airport是,澳大利亚中的中型机场。 该机场位于纬度-12,26925和经度136,81750。 该机场有一条跑道: 13/31. 本场的ICAO机场代码为YPGV。 该机场的IATA代码为GOV。 机场在Brisbane FIR中。

该航空气象观测是针对Gove Airport在2024年6月13日 10:00, 当地时间进行的。

机场观察

风向为090°,速度为12 kt。

可见度为10 km 或者更多。

有疏云,零星散落的云朵在2.700 ft的高度 和 碎云在3.400 ft的高度。 破损或更高的上限为3.400 ft。

温度和风寒是27 °C。 热指数为29。 露点为20 °C,相对湿度为66%。 海平面上的气压为1015 hPa (QNH)。

白天

今天,太阳从06:40升起,在18:05降落。 这适用于Gove Airport,世界夏令时可能有所不同。 当地时间与世界标准时间之间的时差为+9 小时 30 分钟。 夏令时目前正在进行中。

公司介绍

我们没有关于这个机场的公司信息。

体会

到Vliegles.nl去找飞行课程,跳伞和其他飞行体验。 浏览页面,了解Gove Airport附近所有可用的活动。 你也可以使用搜索功能来寻找你所在地附近的特定飞行课程、跳伞或其他飞行体验。

跑道

Id 标题 侧风 逆风 侧风 %
13/31 130°-310° 8 kt 9 kt 64 %

逆风成分最大的方向会被突出显示,并用于横风计算。 这并不一定意味着这个方向在使用。

乌云

2.700 ft SCT 疏云,零星散落的云朵
3.400 ft BKN 碎云

温度 & 天气

温度 27 °C
露点 20 °C
相对湿度 66%
热度指数 29 °C
Kp-index 0 (0-9)

白天

日出
06:40
中午
12:22
日落
18:05 (7:47)

小工具

你想在你的网站上有一个关于Gove Airport的当前航空天气(METAR)的小部件吗?

显示HTML代码
报告变更